Time;durP1;ratioP1;P1;durP2;ratioP2;P2;SDS_P1;SDS_P2;PMS_P1;PMS_P2;Temp;Humidity;BMP_temperature;BMP_pressure;BME280_temperature;BME280_humidity;BME280_pressure;Samples;Min_cycle;Max_cycle;Signal;HPM_P1;HPM_P2
2024/04/14 00:00:47;;;;;;;2.42;1.10;;;;;;;;;;5482613;26;19998;-59
2024/04/14 00:03:13;;;;;;;5.18;1.42;;;;;;;;;;5483182;26;20002;-60
2024/04/14 00:05:39;;;;;;;2.40;1.10;;;;;;;;;;5482812;26;19994;-59
2024/04/14 00:08:04;;;;;;;3.53;1.10;;;;;;;;;;5482861;26;19999;-58
2024/04/14 00:10:31;;;;;;;2.60;1.00;;;;;;;;;;5479179;26;20334;-57
2024/04/14 00:12:56;;;;;;;4.25;1.23;;;;;;;;;;5462694;26;19994;-57
2024/04/14 00:15:21;;;;;;;2.33;1.10;;;;;;;;;;5482392;26;19998;-58
2024/04/14 00:17:47;;;;;;;2.65;1.15;;;;;;;;;;5482315;26;19998;-56
2024/04/14 00:20:12;;;;;;;4.38;1.38;;;;;;;;;;5480932;26;20009;-57
2024/04/14 00:22:38;;;;;;;2.85;1.10;;;;;;;;;;5483021;26;20005;-56
2024/04/14 00:25:04;;;;;;;4.28;1.08;;;;;;;;;;5481286;26;20006;-60
2024/04/14 00:27:29;;;;;;;4.53;1.40;;;;;;;;;;5482921;26;20013;-54
2024/04/14 00:29:54;;;;;;;2.72;1.17;;;;;;;;;;5482655;26;20004;-50
2024/04/14 00:32:20;;;;;;;2.20;1.02;;;;;;;;;;5482454;26;20437;-52
2024/04/14 00:34:45;;;;;;;2.30;1.00;;;;;;;;;;5482376;26;19999;-51
2024/04/14 00:37:10;;;;;;;3.35;1.10;;;;;;;;;;5482334;26;20010;-54
2024/04/14 00:39:36;;;;;;;2.97;1.20;;;;;;;;;;5482426;26;20002;-48
2024/04/14 00:42:01;;;;;;;2.85;0.98;;;;;;;;;;5481771;26;19998;-50
2024/04/14 00:44:27;;;;;;;2.13;1.00;;;;;;;;;;5482890;26;20010;-50
2024/04/14 00:46:54;;;;;;;2.13;1.00;;;;;;;;;;5481570;26;19994;-48
2024/04/14 00:49:20;;;;;;;2.28;1.10;;;;;;;;;;5473807;26;20027;-53
2024/04/14 00:51:45;;;;;;;2.22;1.10;;;;;;;;;;5435511;26;20338;-49
2024/04/14 00:54:14;;;;;;;1.90;0.93;;;;;;;;;;5474759;26;20003;-49
2024/04/14 00:56:39;;;;;;;1.90;0.93;;;;;;;;;;5469714;26;20568;-49
2024/04/14 00:59:04;;;;;;;2.90;1.02;;;;;;;;;;5474438;26;19995;-51
2024/04/14 01:01:31;;;;;;;2.67;1.17;;;;;;;;;;5472419;26;20003;-51
2024/04/14 01:03:57;;;;;;;2.90;1.00;;;;;;;;;;5480704;26;20713;-59
2024/04/14 01:06:22;;;;;;;2.33;1.10;;;;;;;;;;5479665;26;20018;-59
2024/04/14 01:08:48;;;;;;;1.73;0.85;;;;;;;;;;5483939;26;19998;-58
2024/04/14 01:11:13;;;;;;;2.95;1.35;;;;;;;;;;5485128;26;20429;-59
2024/04/14 01:13:39;;;;;;;2.65;1.00;;;;;;;;;;5485234;26;19998;-59
2024/04/14 01:16:04;;;;;;;4.22;1.00;;;;;;;;;;5485492;26;20006;-49
2024/04/14 01:18:29;;;;;;;1.40;0.80;;;;;;;;;;5484278;26;20009;-55
2024/04/14 01:20:55;;;;;;;2.15;0.90;;;;;;;;;;5484271;26;20010;-48
2024/04/14 01:23:21;;;;;;;2.63;0.90;;;;;;;;;;5483898;26;20014;-51
2024/04/14 01:25:46;;;;;;;1.60;0.90;;;;;;;;;;5485206;26;20013;-50
2024/04/14 01:28:12;;;;;;;2.47;1.10;;;;;;;;;;5484428;26;20013;-53
2024/04/14 01:30:37;;;;;;;3.33;1.20;;;;;;;;;;5485253;26;20002;-50
2024/04/14 01:33:02;;;;;;;3.13;1.00;;;;;;;;;;5485198;26;20045;-53
2024/04/14 01:35:28;;;;;;;4.30;1.13;;;;;;;;;;5484905;26;20014;-50
2024/04/14 01:37:53;;;;;;;2.47;0.93;;;;;;;;;;5484165;26;20434;-50
2024/04/14 01:40:18;;;;;;;2.13;0.90;;;;;;;;;;5485279;26;20693;-59
2024/04/14 01:42:44;;;;;;;1.98;0.90;;;;;;;;;;5485468;26;20078;-56
2024/04/14 01:45:09;;;;;;;2.13;0.95;;;;;;;;;;5484478;26;20070;-56
2024/04/14 01:47:36;;;;;;;3.60;1.10;;;;;;;;;;5484690;26;20035;-60
2024/04/14 01:50:02;;;;;;;2.35;1.08;;;;;;;;;;5484638;26;20001;-57
2024/04/14 01:52:28;;;;;;;3.05;1.30;;;;;;;;;;5484261;26;20330;-53
2024/04/14 01:54:53;;;;;;;2.70;1.00;;;;;;;;;;5484800;26;20010;-53
2024/04/14 01:57:18;;;;;;;2.53;0.90;;;;;;;;;;5485198;26;20009;-50
2024/04/14 01:59:44;;;;;;;1.63;0.80;;;;;;;;;;5483431;26;19998;-51
2024/04/14 02:02:09;;;;;;;4.28;0.95;;;;;;;;;;5483927;26;20002;-53
2024/04/14 02:04:34;;;;;;;1.95;0.88;;;;;;;;;;5484717;26;20016;-52
2024/04/14 02:07:00;;;;;;;3.63;0.82;;;;;;;;;;5484425;26;20009;-50
2024/04/14 02:09:25;;;;;;;2.05;0.80;;;;;;;;;;5469646;26;20002;-49
2024/04/14 02:11:50;;;;;;;1.77;0.77;;;;;;;;;;5484704;26;19994;-54
2024/04/14 02:14:16;;;;;;;2.78;1.05;;;;;;;;;;5484976;26;20030;-51
2024/04/14 02:16:41;;;;;;;2.25;1.00;;;;;;;;;;5483654;26;20786;-52
2024/04/14 02:19:06;;;;;;;3.45;0.80;;;;;;;;;;5483226;26;20006;-52
2024/04/14 02:21:32;;;;;;;2.65;0.98;;;;;;;;;;5484649;26;20009;-52
2024/04/14 02:23:57;;;;;;;2.05;0.90;;;;;;;;;;5483109;26;20012;-53
2024/04/14 02:26:23;;;;;;;2.13;0.85;;;;;;;;;;5484405;26;20002;-50
2024/04/14 02:28:48;;;;;;;2.00;0.90;;;;;;;;;;5484051;26;20002;-50
2024/04/14 02:31:13;;;;;;;2.33;0.80;;;;;;;;;;5483616;26;19998;-52
2024/04/14 02:33:40;;;;;;;1.65;0.80;;;;;;;;;;5484370;26;19998;-52
2024/04/14 02:36:06;;;;;;;2.60;0.70;;;;;;;;;;5482402;26;20002;-51
2024/04/14 02:38:31;;;;;;;2.10;0.80;;;;;;;;;;5484436;26;20521;-51
2024/04/14 02:41:01;;;;;;;2.25;0.77;;;;;;;;;;5482562;26;20006;-51
2024/04/14 02:43:27;;;;;;;1.80;0.80;;;;;;;;;;5482795;26;20002;-52
2024/04/14 02:45:56;;;;;;;3.33;0.70;;;;;;;;;;5482507;26;20009;-50
2024/04/14 02:48:22;;;;;;;3.63;0.82;;;;;;;;;;5481976;26;20006;-50
2024/04/14 02:50:48;;;;;;;2.45;0.73;;;;;;;;;;5483372;26;20342;-53
2024/04/14 02:53:14;;;;;;;4.88;0.90;;;;;;;;;;5484288;26;20028;-50
2024/04/14 02:55:39;;;;;;;2.83;0.80;;;;;;;;;;5482789;26;20109;-50
2024/04/14 02:58:05;;;;;;;5.20;0.88;;;;;;;;;;5479481;26;20650;-52
2024/04/14 03:00:31;;;;;;;1.70;0.70;;;;;;;;;;5451330;26;20517;-55
2024/04/14 03:02:56;;;;;;;2.13;0.88;;;;;;;;;;5483617;26;20010;-51
2024/04/14 03:05:22;;;;;;;2.00;0.77;;;;;;;;;;5483354;26;20009;-53
2024/04/14 03:07:51;;;;;;;2.10;0.93;;;;;;;;;;5484260;26;20082;-51
2024/04/14 03:10:17;;;;;;;4.30;0.82;;;;;;;;;;5475615;26;20079;-53
2024/04/14 03:12:42;;;;;;;2.42;0.82;;;;;;;;;;5477890;26;20014;-53
2024/04/14 03:15:08;;;;;;;1.98;0.90;;;;;;;;;;5483592;26;20019;-53
2024/04/14 03:17:33;;;;;;;5.05;0.60;;;;;;;;;;5483848;26;20333;-49
2024/04/14 03:19:58;;;;;;;2.83;0.93;;;;;;;;;;5483058;26;20042;-52
2024/04/14 03:22:24;;;;;;;1.42;0.70;;;;;;;;;;5483265;26;19998;-53
2024/04/14 03:24:49;;;;;;;2.92;0.88;;;;;;;;;;5483816;26;20002;-52
2024/04/14 03:27:15;;;;;;;3.17;0.90;;;;;;;;;;5482784;26;19998;-51
2024/04/14 03:29:42;;;;;;;2.35;0.80;;;;;;;;;;5483657;26;20426;-54
2024/04/14 03:32:08;;;;;;;3.03;0.70;;;;;;;;;;5472093;26;20017;-53
2024/04/14 03:34:34;;;;;;;2.42;0.80;;;;;;;;;;5483086;26;20002;-51
2024/04/14 03:37:00;;;;;;;2.35;0.88;;;;;;;;;;5482959;26;20027;-53
2024/04/14 03:39:25;;;;;;;3.72;0.90;;;;;;;;;;5483414;26;20017;-50
2024/04/14 03:41:50;;;;;;;4.68;0.90;;;;;;;;;;5482897;26;20009;-53
2024/04/14 03:44:16;;;;;;;1.65;0.70;;;;;;;;;;5483089;26;19998;-53
2024/04/14 03:46:41;;;;;;;2.88;1.00;;;;;;;;;;5483123;26;20017;-50
2024/04/14 03:49:07;;;;;;;2.33;0.90;;;;;;;;;;5482352;26;20002;-49
2024/04/14 03:51:32;;;;;;;1.92;0.70;;;;;;;;;;5482077;26;20010;-53
2024/04/14 03:53:57;;;;;;;2.05;0.90;;;;;;;;;;5483273;26;19998;-52
2024/04/14 03:56:23;;;;;;;1.17;0.60;;;;;;;;;;5483298;26;20038;-52
2024/04/14 03:58:51;;;;;;;2.50;0.60;;;;;;;;;;5482122;26;19999;-52
2024/04/14 04:01:17;;;;;;;2.10;0.73;;;;;;;;;;5483033;26;19994;-50
2024/04/14 04:03:42;;;;;;;4.15;0.80;;;;;;;;;;5482820;26;20258;-49
2024/04/14 04:06:07;;;;;;;2.25;0.90;;;;;;;;;;5482223;26;20125;-55
2024/04/14 04:08:33;;;;;;;3.45;0.70;;;;;;;;;;5482781;26;20002;-58
2024/04/14 04:11:02;;;;;;;1.90;0.70;;;;;;;;;;5482704;26;20002;-58
2024/04/14 04:13:28;;;;;;;2.28;0.77;;;;;;;;;;5482583;26;20006;-59
2024/04/14 04:16:01;;;;;;;1.77;0.85;;;;;;;;;;5443747;26;20014;-58
2024/04/14 04:18:26;;;;;;;2.03;0.70;;;;;;;;;;5476470;26;20006;-60
2024/04/14 04:20:53;;;;;;;1.63;0.70;;;;;;;;;;5482488;26;20002;-53
2024/04/14 04:23:19;;;;;;;2.13;0.73;;;;;;;;;;5481670;26;20002;-52
2024/04/14 04:25:44;;;;;;;2.75;0.80;;;;;;;;;;5481980;26;20005;-51
2024/04/14 04:28:09;;;;;;;1.30;0.65;;;;;;;;;;5482444;26;20603;-52
2024/04/14 04:30:34;;;;;;;2.80;0.75;;;;;;;;;;5480970;26;19994;-52
2024/04/14 04:33:00;;;;;;;1.98;0.70;;;;;;;;;;5481479;26;20445;-50
2024/04/14 04:35:25;;;;;;;1.52;0.65;;;;;;;;;;5477908;26;19994;-50
2024/04/14 04:37:50;;;;;;;2.38;0.73;;;;;;;;;;5482407;26;19991;-53
2024/04/14 04:40:16;;;;;;;0.93;0.55;;;;;;;;;;5481956;26;19998;-49
2024/04/14 04:42:41;;;;;;;2.25;0.50;;;;;;;;;;5484713;26;19999;-51
2024/04/14 04:45:06;;;;;;;1.30;0.50;;;;;;;;;;5485192;26;20016;-49
2024/04/14 04:47:32;;;;;;;2.00;0.90;;;;;;;;;;5485253;26;20006;-50
2024/04/14 04:49:57;;;;;;;2.58;0.90;;;;;;;;;;5486118;26;19994;-48
2024/04/14 04:52:22;;;;;;;2.05;0.70;;;;;;;;;;5485364;26;20004;-52
2024/04/14 04:54:48;;;;;;;3.15;0.80;;;;;;;;;;5484679;26;19994;-50
2024/04/14 04:57:13;;;;;;;1.60;0.60;;;;;;;;;;5485693;26;20030;-48
2024/04/14 04:59:38;;;;;;;12.48;0.98;;;;;;;;;;5485820;26;20013;-52
2024/04/14 05:02:04;;;;;;;1.48;0.80;;;;;;;;;;5485224;26;19990;-53
2024/04/14 05:04:29;;;;;;;1.17;0.50;;;;;;;;;;5485338;26;20005;-51
2024/04/14 05:06:55;;;;;;;2.17;0.70;;;;;;;;;;5484843;26;20023;-53
2024/04/14 05:09:20;;;;;;;1.63;0.60;;;;;;;;;;5485574;26;20009;-50
2024/04/14 05:11:45;;;;;;;2.58;0.70;;;;;;;;;;5485059;26;20001;-52
2024/04/14 05:14:11;;;;;;;1.23;0.57;;;;;;;;;;5485739;26;20005;-52
2024/04/14 05:16:36;;;;;;;1.15;0.50;;;;;;;;;;5485261;26;20005;-52
2024/04/14 05:19:01;;;;;;;2.50;0.60;;;;;;;;;;5484574;26;20001;-53
2024/04/14 05:21:27;;;;;;;3.97;0.77;;;;;;;;;;5485425;26;20013;-49
2024/04/14 05:23:52;;;;;;;2.45;0.80;;;;;;;;;;5485587;26;20070;-49
2024/04/14 05:26:17;;;;;;;1.40;0.57;;;;;;;;;;5484141;26;19994;-52
2024/04/14 05:28:43;;;;;;;1.30;0.60;;;;;;;;;;5485745;26;19994;-51
2024/04/14 05:31:08;;;;;;;1.60;0.70;;;;;;;;;;5485081;26;20013;-51
2024/04/14 05:33:33;;;;;;;3.08;0.80;;;;;;;;;;5485234;26;19994;-52
2024/04/14 05:35:58;;;;;;;2.72;0.75;;;;;;;;;;5460115;26;20034;-51
2024/04/14 05:38:24;;;;;;;2.08;0.50;;;;;;;;;;5484945;26;19995;-50
2024/04/14 05:40:50;;;;;;;1.27;0.50;;;;;;;;;;5485122;26;20013;-51
2024/04/14 05:43:15;;;;;;;3.47;0.98;;;;;;;;;;5485228;26;19994;-51
2024/04/14 05:45:40;;;;;;;1.17;0.57;;;;;;;;;;5484783;26;20329;-51
2024/04/14 05:48:06;;;;;;;2.05;0.80;;;;;;;;;;5484939;26;19998;-55
2024/04/14 05:50:31;;;;;;;2.25;0.70;;;;;;;;;;5484273;26;20006;-48
2024/04/14 05:52:56;;;;;;;2.45;0.50;;;;;;;;;;5485064;26;20009;-52
2024/04/14 05:55:22;;;;;;;2.83;0.65;;;;;;;;;;5485196;26;19998;-58
2024/04/14 05:57:47;;;;;;;1.77;0.60;;;;;;;;;;5483816;26;20030;-50
2024/04/14 06:00:12;;;;;;;1.67;0.60;;;;;;;;;;5481684;26;20009;-51
2024/04/14 06:02:38;;;;;;;2.08;0.55;;;;;;;;;;5485011;26;19997;-59
2024/04/14 06:05:04;;;;;;;3.22;0.65;;;;;;;;;;5484816;26;19998;-56
2024/04/14 06:07:29;;;;;;;4.00;1.05;;;;;;;;;;5484105;26;20067;-59
2024/04/14 06:09:55;;;;;;;1.90;0.70;;;;;;;;;;5484447;26;20002;-57
2024/04/14 06:12:20;;;;;;;0.98;0.55;;;;;;;;;;5484844;26;20430;-58
2024/04/14 06:14:45;;;;;;;1.35;0.50;;;;;;;;;;5484042;26;20665;-59
2024/04/14 06:17:11;;;;;;;1.30;0.60;;;;;;;;;;5483692;26;20038;-50
2024/04/14 06:19:36;;;;;;;3.78;0.73;;;;;;;;;;5484976;26;20030;-50
2024/04/14 06:22:02;;;;;;;2.08;0.60;;;;;;;;;;5483947;26;20001;-53
2024/04/14 06:24:27;;;;;;;1.55;0.52;;;;;;;;;;5481058;26;20039;-49
2024/04/14 06:26:53;;;;;;;2.17;0.63;;;;;;;;;;5484111;26;20004;-51
2024/04/14 06:29:18;;;;;;;1.95;0.50;;;;;;;;;;5484007;26;20005;-53
2024/04/14 06:31:45;;;;;;;2.75;0.60;;;;;;;;;;5484219;26;19998;-50
2024/04/14 06:34:10;;;;;;;1.75;0.70;;;;;;;;;;5484647;26;20029;-52
2024/04/14 06:36:35;;;;;;;2.22;0.63;;;;;;;;;;5484118;26;20017;-52
2024/04/14 06:39:01;;;;;;;2.08;0.57;;;;;;;;;;5483381;26;19993;-50
2024/04/14 06:41:26;;;;;;;1.88;0.60;;;;;;;;;;5481821;26;20006;-50
2024/04/14 06:43:51;;;;;;;4.43;0.80;;;;;;;;;;5483962;26;20031;-52
2024/04/14 06:46:17;;;;;;;5.40;0.68;;;;;;;;;;5483477;26;20014;-51
2024/04/14 06:48:42;;;;;;;2.22;0.60;;;;;;;;;;5483928;26;19998;-51
2024/04/14 06:51:07;;;;;;;4.75;0.70;;;;;;;;;;5482990;26;20021;-52
2024/04/14 06:53:33;;;;;;;2.55;0.60;;;;;;;;;;5483655;26;20005;-52
2024/04/14 06:56:00;;;;;;;3.28;0.45;;;;;;;;;;5482184;26;20030;-54
2024/04/14 06:58:25;;;;;;;1.52;0.52;;;;;;;;;;5483927;26;20001;-56
2024/04/14 07:00:51;;;;;;;1.65;0.60;;;;;;;;;;5483648;26;20005;-60
2024/04/14 07:03:16;;;;;;;2.08;0.60;;;;;;;;;;5482972;26;20010;-58
2024/04/14 07:05:41;;;;;;;1.77;0.70;;;;;;;;;;5480962;26;20026;-58
2024/04/14 07:08:07;;;;;;;1.60;0.60;;;;;;;;;;5483436;26;20042;-57
2024/04/14 07:10:32;;;;;;;2.05;0.88;;;;;;;;;;5483073;26;20034;-58
2024/04/14 07:12:57;;;;;;;2.67;0.80;;;;;;;;;;5483751;26;20030;-53
2024/04/14 07:15:23;;;;;;;1.10;0.60;;;;;;;;;;5483935;26;19994;-50
2024/04/14 07:17:48;;;;;;;1.88;0.68;;;;;;;;;;5482628;26;20018;-49
2024/04/14 07:20:13;;;;;;;1.15;0.50;;;;;;;;;;5483322;26;20093;-51
2024/04/14 07:22:39;;;;;;;1.42;0.70;;;;;;;;;;5481011;26;19990;-52
2024/04/14 07:25:05;;;;;;;1.75;0.82;;;;;;;;;;5478817;26;20002;-49
2024/04/14 07:27:30;;;;;;;1.48;0.75;;;;;;;;;;5483214;26;20488;-49
2024/04/14 07:29:55;;;;;;;2.53;0.80;;;;;;;;;;5482646;26;20071;-52
2024/04/14 07:32:21;;;;;;;1.52;0.70;;;;;;;;;;5479141;26;20063;-53
2024/04/14 07:34:47;;;;;;;5.18;1.27;;;;;;;;;;5483047;26;19998;-52
2024/04/14 07:37:12;;;;;;;2.67;0.95;;;;;;;;;;5483039;26;20016;-51
2024/04/14 07:39:37;;;;;;;2.28;0.80;;;;;;;;;;5482188;26;19998;-48
2024/04/14 07:42:05;;;;;;;3.53;0.82;;;;;;;;;;5482660;26;20315;-51
2024/04/14 07:44:30;;;;;;;2.28;0.90;;;;;;;;;;5482512;26;20033;-51
2024/04/14 07:46:56;;;;;;;2.60;0.75;;;;;;;;;;5481581;26;20018;-58
2024/04/14 07:49:22;;;;;;;4.07;0.88;;;;;;;;;;5474862;26;20050;-54
2024/04/14 07:51:47;;;;;;;6.13;0.70;;;;;;;;;;5482527;26;20050;-58
2024/04/14 07:54:13;;;;;;;7.20;0.98;;;;;;;;;;5481025;26;19999;-60
2024/04/14 07:56:38;;;;;;;1.80;0.73;;;;;;;;;;5481484;26;20039;-59
2024/04/14 07:59:04;;;;;;;10.40;0.75;;;;;;;;;;5481340;26;20013;-60
2024/04/14 08:01:30;;;;;;;5.63;0.90;;;;;;;;;;5481041;26;19994;-54
2024/04/14 08:03:55;;;;;;;5.05;0.90;;;;;;;;;;5480705;26;20009;-54
2024/04/14 08:06:21;;;;;;;4.90;1.38;;;;;;;;;;5477879;26;20002;-53
2024/04/14 08:08:46;;;;;;;4.65;1.08;;;;;;;;;;5479946;26;20002;-52
2024/04/14 08:11:11;;;;;;;1.88;0.88;;;;;;;;;;5478683;26;20014;-52
2024/04/14 08:13:37;;;;;;;3.88;0.85;;;;;;;;;;5478863;26;20718;-54
2024/04/14 08:16:02;;;;;;;3.08;0.80;;;;;;;;;;5478071;26;20009;-52
2024/04/14 08:18:28;;;;;;;3.03;0.70;;;;;;;;;;5483890;26;20014;-53
2024/04/14 08:20:58;;;;;;;1.45;0.70;;;;;;;;;;5484730;26;20042;-53
2024/04/14 08:23:23;;;;;;;2.33;0.90;;;;;;;;;;5486240;26;19998;-49
2024/04/14 08:25:48;;;;;;;4.28;1.02;;;;;;;;;;5485841;26;20032;-52
2024/04/14 08:28:14;;;;;;;2.80;0.80;;;;;;;;;;5485035;26;20013;-52
2024/04/14 08:30:39;;;;;;;4.78;1.10;;;;;;;;;;5485215;26;19998;-50
2024/04/14 08:33:05;;;;;;;1.65;0.73;;;;;;;;;;5485792;26;20005;-54
2024/04/14 08:35:30;;;;;;;1.63;0.75;;;;;;;;;;5486511;26;20074;-54
2024/04/14 08:37:55;;;;;;;3.97;1.05;;;;;;;;;;5485240;26;20341;-51
2024/04/14 08:40:20;;;;;;;2.30;0.90;;;;;;;;;;5485827;26;20083;-52
2024/04/14 08:42:46;;;;;;;3.55;1.15;;;;;;;;;;5485584;26;20078;-60
2024/04/14 08:45:14;;;;;;;2.03;0.90;;;;;;;;;;5477351;26;20002;-58
2024/04/14 08:47:41;;;;;;;1.58;0.60;;;;;;;;;;5480924;26;20539;-61
2024/04/14 08:50:07;;;;;;;2.00;0.68;;;;;;;;;;5484289;26;20449;-60
2024/04/14 08:52:33;;;;;;;1.83;0.82;;;;;;;;;;5482493;26;20319;-61
2024/04/14 08:54:58;;;;;;;2.50;1.00;;;;;;;;;;5477821;26;20005;-61
2024/04/14 08:57:26;;;;;;;1.90;0.93;;;;;;;;;;5485021;26;20006;-51
2024/04/14 08:59:54;;;;;;;3.17;0.98;;;;;;;;;;5483983;26;20006;-53
2024/04/14 09:02:19;;;;;;;3.38;0.82;;;;;;;;;;5484136;26;20010;-61
2024/04/14 09:04:47;;;;;;;1.95;0.85;;;;;;;;;;5484749;26;20004;-62
2024/04/14 09:07:12;;;;;;;1.55;0.70;;;;;;;;;;5483222;26;20346;-59
2024/04/14 09:09:38;;;;;;;4.45;0.88;;;;;;;;;;5485233;26;20038;-62
2024/04/14 09:12:03;;;;;;;2.45;0.70;;;;;;;;;;5485439;26;20006;-61
2024/04/14 09:14:29;;;;;;;1.80;0.70;;;;;;;;;;5484311;26;20002;-62
2024/04/14 09:16:54;;;;;;;5.32;0.73;;;;;;;;;;5484771;26;19998;-61
2024/04/14 09:19:20;;;;;;;2.40;0.80;;;;;;;;;;5485592;26;20426;-52
2024/04/14 09:21:46;;;;;;;2.47;0.70;;;;;;;;;;5485472;26;20006;-49
2024/04/14 09:24:11;;;;;;;2.30;0.73;;;;;;;;;;5484961;26;20009;-52
2024/04/14 09:26:36;;;;;;;5.20;0.95;;;;;;;;;;5485535;26;20013;-51
2024/04/14 09:29:06;;;;;;;2.50;0.75;;;;;;;;;;5485312;26;20013;-53
2024/04/14 09:31:32;;;;;;;1.85;0.70;;;;;;;;;;5447000;26;20439;-50
2024/04/14 09:33:58;;;;;;;2.13;0.80;;;;;;;;;;5469817;26;20002;-55
2024/04/14 09:36:24;;;;;;;0.93;0.50;;;;;;;;;;5481587;26;20003;-52
2024/04/14 09:38:51;;;;;;;1.95;0.68;;;;;;;;;;5477751;26;20003;-53
2024/04/14 09:41:16;;;;;;;2.17;0.80;;;;;;;;;;5481304;26;20049;-51
2024/04/14 09:43:43;;;;;;;2.92;0.70;;;;;;;;;;5483145;26;20013;-60
2024/04/14 09:46:09;;;;;;;2.05;0.60;;;;;;;;;;5477390;26;20007;-60
2024/04/14 09:48:35;;;;;;;3.65;1.67;;;;;;;;;;5475561;26;19998;-55
2024/04/14 09:51:01;;;;;;;3.95;0.93;;;;;;;;;;5484135;26;19998;-60
2024/04/14 09:53:31;;;;;;;3.22;1.00;;;;;;;;;;5485066;26;20016;-57
2024/04/14 09:55:57;;;;;;;2.03;0.80;;;;;;;;;;5455921;26;20462;-59
2024/04/14 09:58:23;;;;;;;1.80;0.75;;;;;;;;;;5474992;26;20070;-60
2024/04/14 10:00:48;;;;;;;2.50;0.80;;;;;;;;;;5485003;26;20070;-59
2024/04/14 10:03:14;;;;;;;1.75;0.73;;;;;;;;;;5482484;26;19998;-61
2024/04/14 10:05:41;;;;;;;2.05;0.80;;;;;;;;;;5484533;26;19998;-60
2024/04/14 10:08:07;;;;;;;1.67;0.70;;;;;;;;;;5484967;26;20009;-59
2024/04/14 10:10:33;;;;;;;1.50;0.68;;;;;;;;;;5484446;26;20445;-54
2024/04/14 10:12:58;;;;;;;2.08;0.60;;;;;;;;;;5484003;26;20001;-50
2024/04/14 10:15:24;;;;;;;1.73;0.73;;;;;;;;;;5484209;26;20017;-50
2024/04/14 10:18:06;;;;;;;3.03;0.70;;;;;;;;;;5483292;26;20013;-56
2024/04/14 10:20:40;;;;;;;0.80;0.43;;;;;;;;;;5484000;26;20085;-51
2024/04/14 10:23:06;;;;;;;2.28;0.80;;;;;;;;;;5476841;26;20014;-50
2024/04/14 10:25:31;;;;;;;1.65;0.63;;;;;;;;;;5474532;26;19998;-51
2024/04/14 10:27:57;;;;;;;2.40;0.77;;;;;;;;;;5483546;26;20002;-53
2024/04/14 10:30:24;;;;;;;1.42;0.55;;;;;;;;;;5484671;26;20006;-51
2024/04/14 10:33:05;;;;;;;1.92;0.80;;;;;;;;;;5482781;26;20370;-54
2024/04/14 10:35:30;;;;;;;1.45;0.65;;;;;;;;;;5481700;26;20785;-52
2024/04/14 10:37:56;;;;;;;4.40;0.90;;;;;;;;;;5484498;26;20006;-55
2024/04/14 10:40:22;;;;;;;1.58;0.60;;;;;;;;;;5483369;26;20442;-54
2024/04/14 10:42:48;;;;;;;1.52;0.70;;;;;;;;;;5483964;26;19998;-50
2024/04/14 10:45:32;;;;;;;3.85;0.70;;;;;;;;;;5483500;26;20477;-50
2024/04/14 10:47:57;;;;;;;2.53;0.80;;;;;;;;;;5471040;26;20350;-48
2024/04/14 10:50:25;;;;;;;2.22;0.88;;;;;;;;;;5484090;26;19998;-48
2024/04/14 10:52:50;;;;;;;1.60;0.60;;;;;;;;;;5481823;26;20030;-50
2024/04/14 10:55:15;;;;;;;1.23;0.60;;;;;;;;;;5483795;26;20490;-51
2024/04/14 10:57:41;;;;;;;1.33;0.60;;;;;;;;;;5484043;26;19998;-52
2024/04/14 11:00:07;;;;;;;2.03;0.75;;;;;;;;;;5483292;26;20009;-58
2024/04/14 11:02:33;;;;;;;1.55;0.55;;;;;;;;;;5460263;26;20026;-56
2024/04/14 11:04:58;;;;;;;2.33;0.80;;;;;;;;;;5477782;26;19998;-60
2024/04/14 11:07:23;;;;;;;1.15;0.63;;;;;;;;;;5482241;26;20009;-58
2024/04/14 11:09:49;;;;;;;2.35;0.93;;;;;;;;;;5476248;26;20729;-61
2024/04/14 11:12:15;;;;;;;1.70;0.75;;;;;;;;;;5481115;26;19998;-59
2024/04/14 11:14:44;;;;;;;2.30;0.88;;;;;;;;;;5483492;26;20047;-51
2024/04/14 11:17:13;;;;;;;1.48;0.70;;;;;;;;;;5482569;26;20001;-54
2024/04/14 11:19:38;;;;;;;1.52;0.60;;;;;;;;;;5484257;26;20009;-51
2024/04/14 11:22:04;;;;;;;1.25;0.60;;;;;;;;;;5483595;26;19998;-53
2024/04/14 11:24:32;;;;;;;1.83;0.70;;;;;;;;;;5483411;26;19999;-48
2024/04/14 11:26:57;;;;;;;1.88;0.60;;;;;;;;;;5483102;26;20002;-50
2024/04/14 11:29:23;;;;;;;1.83;0.70;;;;;;;;;;5483414;26;20070;-51
2024/04/14 11:31:48;;;;;;;3.38;1.10;;;;;;;;;;5478771;26;20006;-50
2024/04/14 11:34:13;;;;;;;1.92;0.60;;;;;;;;;;5482020;26;20059;-50
2024/04/14 11:36:40;;;;;;;2.38;0.80;;;;;;;;;;5483173;26;19998;-54
2024/04/14 11:39:06;;;;;;;1.60;0.73;;;;;;;;;;5483139;26;19994;-52
2024/04/14 11:41:32;;;;;;;3.13;0.88;;;;;;;;;;5478525;26;20457;-49
2024/04/14 11:43:58;;;;;;;4.95;0.75;;;;;;;;;;5481991;26;20002;-51
2024/04/14 11:46:23;;;;;;;1.95;0.70;;;;;;;;;;5482668;26;20006;-49
2024/04/14 11:48:49;;;;;;;1.70;0.57;;;;;;;;;;5483102;26;20002;-54
2024/04/14 11:51:14;;;;;;;2.33;0.55;;;;;;;;;;5481388;26;20030;-49
2024/04/14 11:53:39;;;;;;;1.25;0.70;;;;;;;;;;5483072;26;20030;-51
2024/04/14 11:56:05;;;;;;;1.77;0.55;;;;;;;;;;5481531;26;20362;-52
2024/04/14 11:58:31;;;;;;;1.80;0.63;;;;;;;;;;5474159;26;20003;-50
2024/04/14 12:00:56;;;;;;;3.13;0.88;;;;;;;;;;5482596;26;20393;-51
2024/04/14 12:03:21;;;;;;;2.38;0.90;;;;;;;;;;5482727;26;20002;-50
2024/04/14 12:05:48;;;;;;;1.20;0.60;;;;;;;;;;5483003;26;20085;-51
2024/04/14 12:08:13;;;;;;;2.17;0.77;;;;;;;;;;5482278;26;20307;-49
2024/04/14 12:10:39;;;;;;;3.97;0.90;;;;;;;;;;5481390;26;20152;-54
2024/04/14 12:13:04;;;;;;;2.15;0.80;;;;;;;;;;5481695;26;20477;-53
2024/04/14 12:15:29;;;;;;;1.33;0.60;;;;;;;;;;5482464;26;19998;-50
2024/04/14 12:17:55;;;;;;;1.55;0.73;;;;;;;;;;5481072;26;20026;-54
2024/04/14 12:20:20;;;;;;;1.20;0.55;;;;;;;;;;5482124;26;20030;-50
2024/04/14 12:22:45;;;;;;;2.70;0.80;;;;;;;;;;5482278;26;20026;-51
2024/04/14 12:25:11;;;;;;;2.13;0.93;;;;;;;;;;5482446;26;19994;-53
2024/04/14 12:27:38;;;;;;;4.03;0.90;;;;;;;;;;5481482;26;20005;-51
2024/04/14 12:30:03;;;;;;;2.20;0.85;;;;;;;;;;5481926;26;20005;-53
2024/04/14 12:32:29;;;;;;;2.65;0.75;;;;;;;;;;5481971;26;19994;-49
2024/04/14 12:34:54;;;;;;;2.55;0.82;;;;;;;;;;5481405;26;20377;-54
2024/04/14 12:37:19;;;;;;;1.70;0.80;;;;;;;;;;5481756;26;19994;-53
2024/04/14 12:39:45;;;;;;;2.65;0.70;;;;;;;;;;5481821;26;19994;-55
2024/04/14 12:42:10;;;;;;;1.83;0.85;;;;;;;;;;5476967;26;20013;-52
2024/04/14 12:44:35;;;;;;;2.35;0.85;;;;;;;;;;5476767;26;19991;-49
2024/04/14 12:47:01;;;;;;;3.35;0.90;;;;;;;;;;5482103;26;20429;-51
2024/04/14 12:49:26;;;;;;;3.42;0.75;;;;;;;;;;5481477;26;20005;-52
2024/04/14 12:51:53;;;;;;;2.28;0.80;;;;;;;;;;5477698;26;20007;-52
2024/04/14 12:54:18;;;;;;;4.38;1.02;;;;;;;;;;5480811;26;20005;-52
2024/04/14 12:56:43;;;;;;;2.60;0.80;;;;;;;;;;5482286;26;19994;-49
2024/04/14 12:59:09;;;;;;;1.58;0.68;;;;;;;;;;5480380;26;20001;-52
2024/04/14 13:01:34;;;;;;;2.75;0.90;;;;;;;;;;5481895;26;19994;-60
2024/04/14 13:03:59;;;;;;;1.90;0.82;;;;;;;;;;5484835;26;20432;-59
2024/04/14 13:06:25;;;;;;;5.00;0.88;;;;;;;;;;5484982;26;20317;-61
2024/04/14 13:08:51;;;;;;;1.77;0.70;;;;;;;;;;5485868;26;20322;-60
2024/04/14 13:11:17;;;;;;;2.22;0.82;;;;;;;;;;5485195;26;19991;-53
2024/04/14 13:13:42;;;;;;;3.47;1.02;;;;;;;;;;5485251;26;19998;-50
2024/04/14 13:16:07;;;;;;;1.52;0.70;;;;;;;;;;5485028;26;20006;-50
2024/04/14 13:18:33;;;;;;;2.45;0.80;;;;;;;;;;5485517;26;19998;-53
2024/04/14 13:20:59;;;;;;;2.05;0.85;;;;;;;;;;5485075;26;20070;-53
2024/04/14 13:23:24;;;;;;;1.67;0.70;;;;;;;;;;5483393;26;19994;-53
2024/04/14 13:25:50;;;;;;;3.47;0.88;;;;;;;;;;5485360;26;20070;-54
2024/04/14 13:28:15;;;;;;;2.95;0.63;;;;;;;;;;5484888;26;20005;-53
2024/04/14 13:30:40;;;;;;;2.25;0.70;;;;;;;;;;5484194;26;20014;-49
2024/04/14 13:33:06;;;;;;;1.58;0.77;;;;;;;;;;5484871;26;19998;-53
2024/04/14 13:35:31;;;;;;;1.73;0.70;;;;;;;;;;5485470;26;20464;-52
2024/04/14 13:37:56;;;;;;;1.55;0.60;;;;;;;;;;5482196;26;20002;-51
2024/04/14 13:40:22;;;;;;;2.35;0.70;;;;;;;;;;5484376;26;19994;-53
2024/04/14 13:42:47;;;;;;;2.33;0.80;;;;;;;;;;5485110;26;19994;-51
2024/04/14 13:45:12;;;;;;;1.33;0.70;;;;;;;;;;5484130;26;20323;-53
2024/04/14 13:47:38;;;;;;;4.10;0.60;;;;;;;;;;5484404;26;20314;-51
2024/04/14 13:50:04;;;;;;;1.38;0.65;;;;;;;;;;5484948;26;20418;-49
2024/04/14 13:52:29;;;;;;;3.13;1.00;;;;;;;;;;5483855;26;20004;-52
2024/04/14 13:54:58;;;;;;;2.35;0.73;;;;;;;;;;5484328;26;20011;-49
2024/04/14 13:57:25;;;;;;;4.05;0.80;;;;;;;;;;5482826;26;20087;-52
2024/04/14 13:59:50;;;;;;;1.45;0.75;;;;;;;;;;5484690;26;19998;-49
2024/04/14 14:02:17;;;;;;;3.40;0.77;;;;;;;;;;5483117;26;20009;-49
2024/04/14 14:04:42;;;;;;;4.03;1.02;;;;;;;;;;5482415;26;19995;-52
2024/04/14 14:07:07;;;;;;;3.45;0.90;;;;;;;;;;5484568;26;20006;-53
2024/04/14 14:09:33;;;;;;;2.67;1.30;;;;;;;;;;5484048;26;20005;-50
2024/04/14 14:11:58;;;;;;;2.72;0.80;;;;;;;;;;5483704;26;19994;-53
2024/04/14 14:14:24;;;;;;;3.55;0.70;;;;;;;;;;5483268;26;20012;-49
2024/04/14 14:16:49;;;;;;;2.38;0.90;;;;;;;;;;5483930;26;20002;-52
2024/04/14 14:19:15;;;;;;;2.90;1.20;;;;;;;;;;5483955;26;20026;-53
2024/04/14 14:21:40;;;;;;;2.20;0.80;;;;;;;;;;5483885;26;20012;-51
2024/04/14 14:24:06;;;;;;;1.75;0.65;;;;;;;;;;5484501;26;20002;-51
2024/04/14 14:26:31;;;;;;;2.63;0.82;;;;;;;;;;5483826;26;20563;-51
2024/04/14 14:28:56;;;;;;;1.88;0.80;;;;;;;;;;5484447;26;19995;-50
2024/04/14 14:31:22;;;;;;;1.88;0.70;;;;;;;;;;5482433;26;20066;-50
2024/04/14 14:36:33;;;;;;;3.38;0.95;;;;;;;;;;5468906;26;20514;-54